sensor_id;sensor_type;location;lat;lon;timestamp;pressure;altitude;pressure_sealevel;temperature;humidity
59168;BME280;70412;55.048;73.268;2023-12-20T00:00:23;100618.22;;;-14.67;100.00
59168;BME280;70412;55.048;73.268;2023-12-20T00:03:25;100643.28;;;-14.46;100.00
59168;BME280;70412;55.048;73.268;2023-12-20T00:06:30;100626.22;;;-14.55;100.00
59168;BME280;70412;55.048;73.268;2023-12-20T00:09:33;100612.97;;;-14.49;100.00
59168;BME280;70412;55.048;73.268;2023-12-20T00:12:35;100649.72;;;-14.30;100.00
59168;BME280;70412;55.048;73.268;2023-12-20T00:15:37;100646.41;;;-14.29;100.00
59168;BME280;70412;55.048;73.268;2023-12-20T00:18:40;100655.09;;;-14.21;100.00
59168;BME280;70412;55.048;73.268;2023-12-20T00:21:42;100654.38;;;-14.17;100.00
59168;BME280;70412;55.048;73.268;2023-12-20T00:24:44;100649.53;;;-14.11;100.00
59168;BME280;70412;55.048;73.268;2023-12-20T00:27:47;100642.09;;;-14.08;100.00
59168;BME280;70412;55.048;73.268;2023-12-20T00:30:49;100644.00;;;-14.01;100.00
59168;BME280;70412;55.048;73.268;2023-12-20T00:33:51;100640.00;;;-13.94;100.00
59168;BME280;70412;55.048;73.268;2023-12-20T00:36:54;100656.16;;;-13.89;100.00
59168;BME280;70412;55.048;73.268;2023-12-20T00:39:56;100647.19;;;-13.81;100.00
59168;BME280;70412;55.048;73.268;2023-12-20T00:42:59;100648.31;;;-13.73;100.00
59168;BME280;70412;55.048;73.268;2023-12-20T00:46:01;100646.81;;;-13.66;100.00
59168;BME280;70412;55.048;73.268;2023-12-20T00:49:05;100641.25;;;-13.58;100.00
59168;BME280;70412;55.048;73.268;2023-12-20T00:52:08;100644.75;;;-13.53;100.00
59168;BME280;70412;55.048;73.268;2023-12-20T00:55:11;100645.78;;;-13.46;100.00
59168;BME280;70412;55.048;73.268;2023-12-20T00:58:14;100638.22;;;-13.46;100.00
59168;BME280;70412;55.048;73.268;2023-12-20T01:01:17;100646.09;;;-13.37;100.00
59168;BME280;70412;55.048;73.268;2023-12-20T01:04:19;100648.66;;;-13.35;100.00
59168;BME280;70412;55.048;73.268;2023-12-20T01:07:22;100646.28;;;-13.31;100.00
59168;BME280;70412;55.048;73.268;2023-12-20T01:10:24;100628.44;;;-13.37;100.00
59168;BME280;70412;55.048;73.268;2023-12-20T01:13:30;100651.53;;;-13.25;100.00
59168;BME280;70412;55.048;73.268;2023-12-20T01:16:32;100640.69;;;-13.22;100.00
59168;BME280;70412;55.048;73.268;2023-12-20T01:19:34;100646.75;;;-13.16;100.00
59168;BME280;70412;55.048;73.268;2023-12-20T01:22:37;100651.94;;;-13.11;100.00
59168;BME280;70412;55.048;73.268;2023-12-20T01:25:40;100650.38;;;-13.07;100.00
59168;BME280;70412;55.048;73.268;2023-12-20T01:28:42;100649.56;;;-13.06;100.00
59168;BME280;70412;55.048;73.268;2023-12-20T01:31:45;100650.47;;;-13.04;100.00
59168;BME280;70412;55.048;73.268;2023-12-20T01:34:47;100653.00;;;-13.04;100.00
59168;BME280;70412;55.048;73.268;2023-12-20T01:37:50;100658.94;;;-13.02;100.00
59168;BME280;70412;55.048;73.268;2023-12-20T01:40:53;100665.88;;;-12.95;100.00
59168;BME280;70412;55.048;73.268;2023-12-20T01:43:55;100676.19;;;-12.89;100.00
59168;BME280;70412;55.048;73.268;2023-12-20T01:46:57;100666.16;;;-12.86;100.00
59168;BME280;70412;55.048;73.268;2023-12-20T01:50:01;100668.81;;;-12.81;100.00
59168;BME280;70412;55.048;73.268;2023-12-20T01:53:07;100661.34;;;-12.77;100.00
59168;BME280;70412;55.048;73.268;2023-12-20T01:56:11;100659.91;;;-12.69;100.00
59168;BME280;70412;55.048;73.268;2023-12-20T01:59:14;100634.31;;;-12.81;100.00
59168;BME280;70412;55.048;73.268;2023-12-20T02:02:17;100656.84;;;-12.59;100.00
59168;BME280;70412;55.048;73.268;2023-12-20T02:05:19;100654.47;;;-12.52;100.00
59168;BME280;70412;55.048;73.268;2023-12-20T02:08:22;100656.31;;;-12.47;100.00
59168;BME280;70412;55.048;73.268;2023-12-20T02:11:25;100656.44;;;-12.42;100.00
59168;BME280;70412;55.048;73.268;2023-12-20T02:14:28;100658.25;;;-12.38;100.00
59168;BME280;70412;55.048;73.268;2023-12-20T02:17:32;100660.94;;;-12.32;100.00
59168;BME280;70412;55.048;73.268;2023-12-20T02:20:34;100641.41;;;-12.38;100.00
59168;BME280;70412;55.048;73.268;2023-12-20T02:23:37;100654.34;;;-12.27;100.00
59168;BME280;70412;55.048;73.268;2023-12-20T02:26:40;100665.44;;;-12.22;100.00
59168;BME280;70412;55.048;73.268;2023-12-20T02:29:42;100673.09;;;-12.19;100.00
59168;BME280;70412;55.048;73.268;2023-12-20T02:32:45;100669.84;;;-12.15;100.00
59168;BME280;70412;55.048;73.268;2023-12-20T02:35:47;100667.44;;;-12.10;100.00
59168;BME280;70412;55.048;73.268;2023-12-20T02:38:50;100668.38;;;-12.07;100.00
59168;BME280;70412;55.048;73.268;2023-12-20T02:41:52;100676.91;;;-12.03;100.00
59168;BME280;70412;55.048;73.268;2023-12-20T02:44:55;100647.91;;;-12.16;100.00
59168;BME280;70412;55.048;73.268;2023-12-20T02:47:57;100678.72;;;-11.98;100.00
59168;BME280;70412;55.048;73.268;2023-12-20T02:51:00;100688.09;;;-11.94;100.00
59168;BME280;70412;55.048;73.268;2023-12-20T02:54:03;100692.44;;;-11.89;100.00
59168;BME280;70412;55.048;73.268;2023-12-20T02:57:06;100701.00;;;-11.84;100.00
59168;BME280;70412;55.048;73.268;2023-12-20T03:00:10;100700.22;;;-11.82;100.00
59168;BME280;70412;55.048;73.268;2023-12-20T03:03:12;100697.66;;;-11.83;100.00
59168;BME280;70412;55.048;73.268;2023-12-20T03:06:18;100705.50;;;-11.74;100.00
59168;BME280;70412;55.048;73.268;2023-12-20T03:09:21;100685.06;;;-11.82;100.00
59168;BME280;70412;55.048;73.268;2023-12-20T03:12:24;100710.81;;;-11.64;100.00
59168;BME280;70412;55.048;73.268;2023-12-20T03:15:29;100698.34;;;-11.57;100.00
59168;BME280;70412;55.048;73.268;2023-12-20T03:18:31;100702.66;;;-11.53;100.00
59168;BME280;70412;55.048;73.268;2023-12-20T03:21:33;100699.34;;;-11.51;100.00
59168;BME280;70412;55.048;73.268;2023-12-20T03:24:36;100705.50;;;-11.41;100.00
59168;BME280;70412;55.048;73.268;2023-12-20T03:27:38;100697.91;;;-11.41;100.00
59168;BME280;70412;55.048;73.268;2023-12-20T03:30:41;100708.13;;;-11.37;100.00
59168;BME280;70412;55.048;73.268;2023-12-20T03:33:43;100703.16;;;-11.34;100.00
59168;BME280;70412;55.048;73.268;2023-12-20T03:36:48;100701.59;;;-11.27;100.00
59168;BME280;70412;55.048;73.268;2023-12-20T03:39:51;100704.28;;;-11.22;100.00
59168;BME280;70412;55.048;73.268;2023-12-20T03:42:53;100709.44;;;-11.16;100.00
59168;BME280;70412;55.048;73.268;2023-12-20T03:45:55;100713.81;;;-11.09;100.00
59168;BME280;70412;55.048;73.268;2023-12-20T03:48:57;100713.09;;;-11.05;100.00
59168;BME280;70412;55.048;73.268;2023-12-20T03:52:00;100719.09;;;-11.00;100.00
59168;BME280;70412;55.048;73.268;2023-12-20T03:55:02;100731.00;;;-10.97;100.00
59168;BME280;70412;55.048;73.268;2023-12-20T03:58:05;100735.28;;;-10.93;100.00
59168;BME280;70412;55.048;73.268;2023-12-20T04:01:10;100738.78;;;-10.90;100.00
59168;BME280;70412;55.048;73.268;2023-12-20T04:04:15;100737.16;;;-10.86;100.00
59168;BME280;70412;55.048;73.268;2023-12-20T04:07:18;100735.63;;;-10.80;100.00
59168;BME280;70412;55.048;73.268;2023-12-20T04:10:20;100735.84;;;-10.71;100.00
59168;BME280;70412;55.048;73.268;2023-12-20T04:13:23;100739.31;;;-10.65;100.00
59168;BME280;70412;55.048;73.268;2023-12-20T04:16:25;100741.03;;;-10.64;100.00
59168;BME280;70412;55.048;73.268;2023-12-20T04:19:27;100736.09;;;-10.58;100.00
59168;BME280;70412;55.048;73.268;2023-12-20T04:22:30;100735.34;;;-10.54;100.00
59168;BME280;70412;55.048;73.268;2023-12-20T04:25:32;100737.13;;;-10.50;100.00
59168;BME280;70412;55.048;73.268;2023-12-20T04:28:34;100736.38;;;-10.46;100.00
59168;BME280;70412;55.048;73.268;2023-12-20T04:31:37;100749.97;;;-10.43;100.00
59168;BME280;70412;55.048;73.268;2023-12-20T04:34:39;100747.69;;;-10.30;100.00
59168;BME280;70412;55.048;73.268;2023-12-20T04:37:42;100735.03;;;-10.29;100.00
59168;BME280;70412;55.048;73.268;2023-12-20T04:40:44;100749.09;;;-10.04;100.00
59168;BME280;70412;55.048;73.268;2023-12-20T04:43:47;100732.13;;;-10.06;100.00
59168;BME280;70412;55.048;73.268;2023-12-20T04:46:49;100753.72;;;-9.83;100.00
59168;BME280;70412;55.048;73.268;2023-12-20T04:49:52;100751.25;;;-9.80;100.00
59168;BME280;70412;55.048;73.268;2023-12-20T04:52:54;100733.47;;;-9.80;100.00
59168;BME280;70412;55.048;73.268;2023-12-20T04:55:57;100764.28;;;-9.62;100.00
59168;BME280;70412;55.048;73.268;2023-12-20T04:59:00;100739.69;;;-9.64;100.00
59168;BME280;70412;55.048;73.268;2023-12-20T05:02:02;100775.69;;;-9.40;100.00
59168;BME280;70412;55.048;73.268;2023-12-20T05:05:05;100778.22;;;-9.40;100.00
59168;BME280;70412;55.048;73.268;2023-12-20T05:08:07;100775.81;;;-9.32;100.00
59168;BME280;70412;55.048;73.268;2023-12-20T05:11:10;100768.31;;;-9.25;100.00
59168;BME280;70412;55.048;73.268;2023-12-20T05:14:12;100770.97;;;-9.19;100.00
59168;BME280;70412;55.048;73.268;2023-12-20T05:17:15;100766.91;;;-9.07;100.00
59168;BME280;70412;55.048;73.268;2023-12-20T05:20:17;100761.94;;;-9.01;100.00
59168;BME280;70412;55.048;73.268;2023-12-20T05:23:20;100773.09;;;-8.92;100.00
59168;BME280;70412;55.048;73.268;2023-12-20T05:26:22;100778.38;;;-8.79;100.00
59168;BME280;70412;55.048;73.268;2023-12-20T05:29:24;100778.50;;;-8.72;100.00
59168;BME280;70412;55.048;73.268;2023-12-20T05:32:27;100774.22;;;-8.73;100.00
59168;BME280;70412;55.048;73.268;2023-12-20T05:35:29;100769.97;;;-8.75;100.00
59168;BME280;70412;55.048;73.268;2023-12-20T05:38:32;100770.16;;;-8.63;100.00
59168;BME280;70412;55.048;73.268;2023-12-20T05:41:34;100757.59;;;-8.54;100.00
59168;BME280;70412;55.048;73.268;2023-12-20T05:44:38;100762.13;;;-8.32;100.00
59168;BME280;70412;55.048;73.268;2023-12-20T05:47:40;100763.16;;;-8.19;100.00
59168;BME280;70412;55.048;73.268;2023-12-20T05:50:43;100757.41;;;-8.04;100.00
59168;BME280;70412;55.048;73.268;2023-12-20T05:53:45;100759.22;;;-7.94;100.00
59168;BME280;70412;55.048;73.268;2023-12-20T05:56:48;100755.09;;;-7.84;100.00
59168;BME280;70412;55.048;73.268;2023-12-20T05:59:50;100763.59;;;-7.84;100.00
59168;BME280;70412;55.048;73.268;2023-12-20T06:02:53;100767.91;;;-7.77;100.00
59168;BME280;70412;55.048;73.268;2023-12-20T06:05:55;100785.94;;;-7.58;100.00
59168;BME280;70412;55.048;73.268;2023-12-20T06:08:58;100787.72;;;-7.53;100.00
59168;BME280;70412;55.048;73.268;2023-12-20T06:12:00;100782.69;;;-7.47;100.00
59168;BME280;70412;55.048;73.268;2023-12-20T06:15:03;100776.75;;;-7.43;100.00
59168;BME280;70412;55.048;73.268;2023-12-20T06:18:06;100760.38;;;-7.68;100.00
59168;BME280;70412;55.048;73.268;2023-12-20T06:21:08;100781.03;;;-7.42;100.00
59168;BME280;70412;55.048;73.268;2023-12-20T06:24:14;100780.09;;;-7.50;100.00
59168;BME280;70412;55.048;73.268;2023-12-20T06:27:17;100800.56;;;-7.39;100.00
59168;BME280;70412;55.048;73.268;2023-12-20T06:30:19;100763.16;;;-7.43;100.00
59168;BME280;70412;55.048;73.268;2023-12-20T06:33:22;100774.28;;;-7.37;100.00
59168;BME280;70412;55.048;73.268;2023-12-20T06:36:25;100798.25;;;-7.19;100.00
59168;BME280;70412;55.048;73.268;2023-12-20T06:39:27;100793.16;;;-7.19;100.00
59168;BME280;70412;55.048;73.268;2023-12-20T06:42:31;100796.50;;;-7.22;100.00
59168;BME280;70412;55.048;73.268;2023-12-20T06:45:33;100804.16;;;-7.22;100.00
59168;BME280;70412;55.048;73.268;2023-12-20T06:48:36;100780.25;;;-7.36;100.00
59168;BME280;70412;55.048;73.268;2023-12-20T06:51:39;100787.78;;;-7.44;100.00
59168;BME280;70412;55.048;73.268;2023-12-20T06:54:43;100788.75;;;-7.34;100.00
59168;BME280;70412;55.048;73.268;2023-12-20T06:57:46;100795.75;;;-7.15;100.00
59168;BME280;70412;55.048;73.268;2023-12-20T07:00:48;100793.31;;;-7.02;100.00
59168;BME280;70412;55.048;73.268;2023-12-20T07:03:51;100788.94;;;-7.14;100.00
59168;BME280;70412;55.048;73.268;2023-12-20T07:06:53;100798.28;;;-7.16;100.00
59168;BME280;70412;55.048;73.268;2023-12-20T07:10:00;100804.34;;;-7.03;100.00
59168;BME280;70412;55.048;73.268;2023-12-20T07:13:03;100795.03;;;-6.98;100.00
59168;BME280;70412;55.048;73.268;2023-12-20T07:16:05;100810.41;;;-6.88;100.00
59168;BME280;70412;55.048;73.268;2023-12-20T07:19:11;100814.69;;;-6.82;100.00
59168;BME280;70412;55.048;73.268;2023-12-20T07:22:13;100812.16;;;-6.79;100.00
59168;BME280;70412;55.048;73.268;2023-12-20T07:25:16;100824.97;;;-6.73;100.00
59168;BME280;70412;55.048;73.268;2023-12-20T07:28:18;100825.88;;;-6.68;100.00
59168;BME280;70412;55.048;73.268;2023-12-20T07:31:21;100820.66;;;-6.83;100.00
59168;BME280;70412;55.048;73.268;2023-12-20T07:34:23;100824.09;;;-6.77;100.00
59168;BME280;70412;55.048;73.268;2023-12-20T07:37:26;100799.31;;;-6.93;100.00
59168;BME280;70412;55.048;73.268;2023-12-20T07:40:31;100824.84;;;-6.91;100.00
59168;BME280;70412;55.048;73.268;2023-12-20T07:43:33;100831.72;;;-6.81;100.00
59168;BME280;70412;55.048;73.268;2023-12-20T07:46:36;100820.59;;;-6.91;100.00
59168;BME280;70412;55.048;73.268;2023-12-20T07:49:38;100822.34;;;-6.84;100.00
59168;BME280;70412;55.048;73.268;2023-12-20T07:52:41;100821.53;;;-6.78;100.00
59168;BME280;70412;55.048;73.268;2023-12-20T07:55:44;100821.50;;;-6.81;100.00
59168;BME280;70412;55.048;73.268;2023-12-20T07:58:46;100810.47;;;-6.77;100.00
59168;BME280;70412;55.048;73.268;2023-12-20T08:01:50;100818.25;;;-6.65;100.00
59168;BME280;70412;55.048;73.268;2023-12-20T08:04:52;100813.91;;;-6.75;100.00
59168;BME280;70412;55.048;73.268;2023-12-20T08:07:55;100820.63;;;-6.88;100.00
59168;BME280;70412;55.048;73.268;2023-12-20T08:10:57;100827.34;;;-6.99;100.00
59168;BME280;70412;55.048;73.268;2023-12-20T08:14:02;100824.69;;;-7.08;100.00
59168;BME280;70412;55.048;73.268;2023-12-20T08:17:04;100814.44;;;-7.13;100.00
59168;BME280;70412;55.048;73.268;2023-12-20T08:20:07;100763.16;;;-7.43;100.00
59168;BME280;70412;55.048;73.268;2023-12-20T08:23:10;100833.25;;;-7.04;100.00
59168;BME280;70412;55.048;73.268;2023-12-20T08:26:12;100829.78;;;-7.07;100.00
59168;BME280;70412;55.048;73.268;2023-12-20T08:29:15;100806.84;;;-7.07;100.00
59168;BME280;70412;55.048;73.268;2023-12-20T08:32:17;100826.47;;;-7.02;100.00
59168;BME280;70412;55.048;73.268;2023-12-20T08:35:20;100830.72;;;-7.00;100.00
59168;BME280;70412;55.048;73.268;2023-12-20T08:38:22;100829.03;;;-7.01;100.00
59168;BME280;70412;55.048;73.268;2023-12-20T08:41:25;100810.28;;;-7.04;100.00
59168;BME280;70412;55.048;73.268;2023-12-20T08:44:27;100822.28;;;-6.94;100.00
59168;BME280;70412;55.048;73.268;2023-12-20T08:47:30;100828.22;;;-6.89;100.00
59168;BME280;70412;55.048;73.268;2023-12-20T08:50:33;100832.47;;;-6.93;100.00
59168;BME280;70412;55.048;73.268;2023-12-20T08:53:35;100837.53;;;-7.00;100.00
59168;BME280;70412;55.048;73.268;2023-12-20T08:56:38;100842.38;;;-7.22;100.00
59168;BME280;70412;55.048;73.268;2023-12-20T08:59:40;100840.53;;;-7.38;100.00
59168;BME280;70412;55.048;73.268;2023-12-20T09:02:43;100850.63;;;-7.44;100.00
59168;BME280;70412;55.048;73.268;2023-12-20T09:05:45;100842.91;;;-7.52;100.00
59168;BME280;70412;55.048;73.268;2023-12-20T09:08:47;100851.31;;;-7.57;100.00
59168;BME280;70412;55.048;73.268;2023-12-20T09:11:52;100849.72;;;-7.51;100.00
59168;BME280;70412;55.048;73.268;2023-12-20T09:14:55;100847.22;;;-7.48;100.00
59168;BME280;70412;55.048;73.268;2023-12-20T09:17:57;100837.81;;;-7.52;100.00
59168;BME280;70412;55.048;73.268;2023-12-20T09:21:00;100835.25;;;-7.55;100.00
59168;BME280;70412;55.048;73.268;2023-12-20T09:24:04;100839.47;;;-7.55;100.00
59168;BME280;70412;55.048;73.268;2023-12-20T09:27:07;100834.31;;;-7.61;100.00
59168;BME280;70412;55.048;73.268;2023-12-20T09:30:09;100823.91;;;-7.80;100.00
59168;BME280;70412;55.048;73.268;2023-12-20T09:33:12;100843.34;;;-7.86;100.00
59168;BME280;70412;55.048;73.268;2023-12-20T09:36:14;100851.84;;;-7.86;100.00
59168;BME280;70412;55.048;73.268;2023-12-20T09:39:18;100854.41;;;-7.83;100.00
59168;BME280;70412;55.048;73.268;2023-12-20T09:42:44;100854.38;;;-7.86;100.00
59168;BME280;70412;55.048;73.268;2023-12-20T09:45:53;100861.94;;;-7.89;100.00
59168;BME280;70412;55.048;73.268;2023-12-20T09:48:57;100857.59;;;-7.99;100.00
59168;BME280;70412;55.048;73.268;2023-12-20T09:52:00;100854.09;;;-8.06;100.00
59168;BME280;70412;55.048;73.268;2023-12-20T09:55:04;100873.56;;;-8.09;100.00
59168;BME280;70412;55.048;73.268;2023-12-20T09:58:10;100863.31;;;-8.14;100.00
59168;BME280;70412;55.048;73.268;2023-12-20T10:01:12;100833.13;;;-8.47;100.00
59168;BME280;70412;55.048;73.268;2023-12-20T10:04:16;100874.00;;;-8.38;100.00
59168;BME280;70412;55.048;73.268;2023-12-20T10:07:19;100866.19;;;-8.47;100.00
59168;BME280;70412;55.048;73.268;2023-12-20T10:10:22;100858.22;;;-8.70;100.00
59168;BME280;70412;55.048;73.268;2023-12-20T10:13:24;100870.16;;;-8.64;100.00
59168;BME280;70412;55.048;73.268;2023-12-20T10:16:28;100873.53;;;-8.65;100.00
59168;BME280;70412;55.048;73.268;2023-12-20T10:19:31;100865.72;;;-8.76;100.00
59168;BME280;70412;55.048;73.268;2023-12-20T10:22:34;100869.91;;;-8.79;100.00
59168;BME280;70412;55.048;73.268;2023-12-20T10:25:39;100879.09;;;-8.88;100.00
59168;BME280;70412;55.048;73.268;2023-12-20T10:28:43;100878.91;;;-8.97;100.00
59168;BME280;70412;55.048;73.268;2023-12-20T10:31:50;100883.13;;;-8.99;100.00
59168;BME280;70412;55.048;73.268;2023-12-20T10:34:53;100865.16;;;-9.08;100.00
59168;BME280;70412;55.048;73.268;2023-12-20T10:37:56;100884.84;;;-8.98;100.00
59168;BME280;70412;55.048;73.268;2023-12-20T10:40:59;100885.59;;;-9.03;100.00
59168;BME280;70412;55.048;73.268;2023-12-20T10:44:04;100879.47;;;-9.13;100.00
59168;BME280;70412;55.048;73.268;2023-12-20T10:47:11;100882.88;;;-9.11;100.00
59168;BME280;70412;55.048;73.268;2023-12-20T10:50:15;100882.94;;;-9.08;100.00
59168;BME280;70412;55.048;73.268;2023-12-20T10:53:18;100881.19;;;-9.10;100.00
59168;BME280;70412;55.048;73.268;2023-12-20T10:56:23;100884.59;;;-9.10;100.00
59168;BME280;70412;55.048;73.268;2023-12-20T10:59:28;100896.41;;;-9.12;100.00
59168;BME280;70412;55.048;73.268;2023-12-20T11:02:38;100893.03;;;-9.12;100.00
59168;BME280;70412;55.048;73.268;2023-12-20T11:06:00;100899.75;;;-9.16;100.00
59168;BME280;70412;55.048;73.268;2023-12-20T11:09:28;100903.94;;;-9.18;100.00
59168;BME280;70412;55.048;73.268;2023-12-20T11:12:42;100901.41;;;-9.18;100.00
59168;BME280;70412;55.048;73.268;2023-12-20T11:15:47;100906.44;;;-9.20;100.00
59168;BME280;70412;55.048;73.268;2023-12-20T11:18:51;100906.44;;;-9.20;100.00
59168;BME280;70412;55.048;73.268;2023-12-20T11:21:53;100905.56;;;-9.22;100.00
59168;BME280;70412;55.048;73.268;2023-12-20T11:25:13;100908.06;;;-9.23;100.00
59168;BME280;70412;55.048;73.268;2023-12-20T11:28:20;100908.88;;;-9.24;100.00
59168;BME280;70412;55.048;73.268;2023-12-20T11:31:23;100907.13;;;-9.28;100.00
59168;BME280;70412;55.048;73.268;2023-12-20T11:34:32;100904.72;;;-9.22;100.00
59168;BME280;70412;55.048;73.268;2023-12-20T11:37:36;100902.97;;;-9.23;100.00
59168;BME280;70412;55.048;73.268;2023-12-20T11:40:41;100897.78;;;-9.29;100.00
59168;BME280;70412;55.048;73.268;2023-12-20T11:43:44;100890.22;;;-9.26;100.00
59168;BME280;70412;55.048;73.268;2023-12-20T11:46:47;100886.84;;;-9.25;100.00
59168;BME280;70412;55.048;73.268;2023-12-20T11:49:49;100893.59;;;-9.26;100.00
59168;BME280;70412;55.048;73.268;2023-12-20T11:52:53;100924.06;;;-9.27;100.00
59168;BME280;70412;55.048;73.268;2023-12-20T11:55:57;100909.59;;;-9.31;100.00
59168;BME280;70412;55.048;73.268;2023-12-20T11:58:59;100915.47;;;-9.35;100.00
59168;BME280;70412;55.048;73.268;2023-12-20T12:02:01;100905.28;;;-9.37;100.00
59168;BME280;70412;55.048;73.268;2023-12-20T12:05:06;100909.56;;;-9.34;100.00
59168;BME280;70412;55.048;73.268;2023-12-20T12:08:08;100907.06;;;-9.31;100.00
59168;BME280;70412;55.048;73.268;2023-12-20T12:11:11;100908.75;;;-9.32;100.00
59168;BME280;70412;55.048;73.268;2023-12-20T12:14:13;100883.88;;;-9.50;100.00
59168;BME280;70412;55.048;73.268;2023-12-20T12:17:16;100910.38;;;-9.37;100.00
59168;BME280;70412;55.048;73.268;2023-12-20T12:20:36;100902.78;;;-9.35;100.00
59168;BME280;70412;55.048;73.268;2023-12-20T12:23:45;100919.75;;;-9.34;100.00
59168;BME280;70412;55.048;73.268;2023-12-20T12:26:51;100901.16;;;-9.30;100.00
59168;BME280;70412;55.048;73.268;2023-12-20T12:30:04;100902.81;;;-9.32;100.00
59168;BME280;70412;55.048;73.268;2023-12-20T12:33:08;100902.81;;;-9.32;100.00
59168;BME280;70412;55.048;73.268;2023-12-20T12:36:12;100916.38;;;-9.32;100.00
59168;BME280;70412;55.048;73.268;2023-12-20T12:39:18;100914.69;;;-9.31;100.00
59168;BME280;70412;55.048;73.268;2023-12-20T12:42:20;100921.41;;;-9.33;100.00
59168;BME280;70412;55.048;73.268;2023-12-20T12:45:23;100921.41;;;-9.36;100.00
59168;BME280;70412;55.048;73.268;2023-12-20T12:48:37;100911.22;;;-9.36;100.00
59168;BME280;70412;55.048;73.268;2023-12-20T12:51:40;100909.56;;;-9.34;100.00
59168;BME280;70412;55.048;73.268;2023-12-20T12:54:44;100907.03;;;-9.34;100.00
59168;BME280;70412;55.048;73.268;2023-12-20T12:57:47;100925.63;;;-9.37;100.00
59168;BME280;70412;55.048;73.268;2023-12-20T13:00:50;100921.25;;;-9.42;100.00
59168;BME280;70412;55.048;73.268;2023-12-20T13:04:07;100918.69;;;-9.44;100.00
59168;BME280;70412;55.048;73.268;2023-12-20T13:07:12;100913.41;;;-9.55;100.00
59168;BME280;70412;55.048;73.268;2023-12-20T13:10:18;100929.63;;;-9.46;100.00
59168;BME280;70412;55.048;73.268;2023-12-20T13:13:21;100920.28;;;-9.49;100.00
59168;BME280;70412;55.048;73.268;2023-12-20T13:16:26;100918.66;;;-9.45;100.00
59168;BME280;70412;55.048;73.268;2023-12-20T13:19:29;100912.63;;;-9.51;100.00
59168;BME280;70412;55.048;73.268;2023-12-20T13:22:38;100914.41;;;-9.46;100.00
59168;BME280;70412;55.048;73.268;2023-12-20T13:25:41;100922.91;;;-9.44;100.00
59168;BME280;70412;55.048;73.268;2023-12-20T13:28:45;100892.13;;;-9.60;100.00
59168;BME280;70412;55.048;73.268;2023-12-20T13:31:47;100928.91;;;-9.41;100.00
59168;BME280;70412;55.048;73.268;2023-12-20T13:34:58;100936.53;;;-9.41;100.00
59168;BME280;70412;55.048;73.268;2023-12-20T13:38:16;100940.84;;;-9.38;100.00
59168;BME280;70412;55.048;73.268;2023-12-20T13:41:18;100929.00;;;-9.36;100.00
59168;BME280;70412;55.048;73.268;2023-12-20T13:44:21;100938.38;;;-9.32;100.00
59168;BME280;70412;55.048;73.268;2023-12-20T13:47:26;100938.44;;;-9.29;100.00
59168;BME280;70412;55.048;73.268;2023-12-20T13:50:41;100935.06;;;-9.28;100.00
59168;BME280;70412;55.048;73.268;2023-12-20T13:53:43;100861.47;;;-9.69;100.00
59168;BME280;70412;55.048;73.268;2023-12-20T13:56:55;100932.59;;;-9.24;100.00
59168;BME280;70412;55.048;73.268;2023-12-20T14:00:00;100928.25;;;-9.29;100.00
59168;BME280;70412;55.048;73.268;2023-12-20T14:03:04;100932.50;;;-9.30;100.00
59168;BME280;70412;55.048;73.268;2023-12-20T14:06:07;100928.19;;;-9.35;100.00
59168;BME280;70412;55.048;73.268;2023-12-20T14:09:10;100928.97;;;-9.39;100.00
59168;BME280;70412;55.048;73.268;2023-12-20T14:12:14;100895.53;;;-9.58;100.00
59168;BME280;70412;55.048;73.268;2023-12-20T14:15:18;100925.44;;;-9.44;100.00
59168;BME280;70412;55.048;73.268;2023-12-20T14:18:20;100914.28;;;-9.53;100.00
59168;BME280;70412;55.048;73.268;2023-12-20T14:21:24;100926.22;;;-9.48;100.00
59168;BME280;70412;55.048;73.268;2023-12-20T14:24:27;100933.78;;;-9.52;100.00
59168;BME280;70412;55.048;73.268;2023-12-20T14:27:29;100931.09;;;-9.58;100.00
59168;BME280;70412;55.048;73.268;2023-12-20T14:30:31;100900.16;;;-9.79;100.00
59168;BME280;70412;55.048;73.268;2023-12-20T14:33:34;100917.19;;;-9.75;100.00
59168;BME280;70412;55.048;73.268;2023-12-20T14:36:38;100922.06;;;-9.84;100.00
59168;BME280;70412;55.048;73.268;2023-12-20T14:39:40;100915.00;;;-9.97;100.00
59168;BME280;70412;55.048;73.268;2023-12-20T14:42:44;100915.56;;;-10.09;100.00
59168;BME280;70412;55.048;73.268;2023-12-20T14:45:46;100908.41;;;-10.25;100.00
59168;BME280;70412;55.048;73.268;2023-12-20T14:48:49;100900.63;;;-10.34;100.00
59168;BME280;70412;55.048;73.268;2023-12-20T14:51:52;100892.09;;;-10.38;100.00
59168;BME280;70412;55.048;73.268;2023-12-20T14:54:56;100902.94;;;-10.42;100.00
59168;BME280;70412;55.048;73.268;2023-12-20T14:57:59;100883.34;;;-10.49;100.00
59168;BME280;70412;55.048;73.268;2023-12-20T15:01:02;100884.13;;;-10.52;100.00
59168;BME280;70412;55.048;73.268;2023-12-20T15:04:06;100886.63;;;-10.53;100.00
59168;BME280;70412;55.048;73.268;2023-12-20T15:07:10;100876.50;;;-10.53;100.00
59168;BME280;70412;55.048;73.268;2023-12-20T15:10:13;100875.66;;;-10.54;100.00
59168;BME280;70412;55.048;73.268;2023-12-20T15:13:15;100865.47;;;-10.55;100.00
59168;BME280;70412;55.048;73.268;2023-12-20T15:16:18;100821.72;;;-10.83;100.00
59168;BME280;70412;55.048;73.268;2023-12-20T15:19:21;100862.94;;;-10.55;100.00
59168;BME280;70412;55.048;73.268;2023-12-20T15:22:23;100855.47;;;-10.49;100.00
59168;BME280;70412;55.048;73.268;2023-12-20T15:25:27;100854.72;;;-10.45;100.00
59168;BME280;70412;55.048;73.268;2023-12-20T15:28:30;100861.41;;;-10.47;100.00